Time;durP1;ratioP1;P1;durP2;ratioP2;P2;SDS_P1;SDS_P2;PMS_P1;PMS_P2;Temp;Humidity;BMP_temperature;BMP_pressure;BME280_temperature;BME280_humidity;BME280_pressure;Samples;Min_cycle;Max_cycle;Signal;HPM_P1;HPM_P2
2021/10/09 00:01:41;;;;;;;;;17.75;15.50;;;;;13.80;66.98;101803.47;5016197;28;45316;-61
2021/10/09 00:04:07;;;;;;;;;11.75;11.75;;;;;13.78;66.46;101800.13;5015504;28;66131;-60
2021/10/09 00:06:32;;;;;;;;;14.50;12.75;;;;;13.82;66.52;101811.25;5016365;28;45390;-61
2021/10/09 00:08:58;;;;;;;;;16.00;13.00;;;;;13.81;66.89;101813.06;5016626;28;45360;-61
2021/10/09 00:11:37;;;;;;;;;14.25;12.75;;;;;13.79;66.44;101804.44;5015711;28;45220;-61
2021/10/09 00:14:09;;;;;;;;;17.00;14.50;;;;;13.81;66.85;101810.44;5016325;28;45355;-61
2021/10/09 00:16:35;;;;;;;;;21.25;15.50;;;;;13.82;66.80;101813.91;5015975;28;46612;-61
2021/10/09 00:19:00;;;;;;;;;14.50;12.25;;;;;13.83;66.48;101807.66;5015602;28;62999;-61
2021/10/09 00:21:25;;;;;;;;;15.00;13.50;;;;;13.82;66.56;101796.25;5014779;28;45416;-60
2021/10/09 00:23:51;;;;;;;;;13.75;12.25;;;;;13.80;66.75;101796.38;5028129;28;63324;-61
2021/10/09 00:26:16;;;;;;;;;15.50;12.25;;;;;13.81;66.58;101794.59;5035378;28;60123;-60
2021/10/09 00:28:42;;;;;;;;;13.00;10.50;;;;;13.81;66.63;101799.88;5035746;28;45437;-61
2021/10/09 00:31:07;;;;;;;;;15.50;14.00;;;;;13.80;66.85;101793.72;5035241;28;66042;-60
2021/10/09 00:33:32;;;;;;;;;15.50;14.25;;;;;13.82;66.42;101792.75;5035472;28;59471;-61
2021/10/09 00:35:58;;;;;;;;;16.75;16.75;;;;;13.81;66.19;101794.59;5016954;28;64891;-60
2021/10/09 00:38:23;;;;;;;;;15.75;13.75;;;;;13.82;66.61;101803.34;5034862;28;72171;-61
2021/10/09 00:40:49;;;;;;;;;20.25;12.00;;;;;13.80;66.28;101800.84;5034875;28;68404;-61
2021/10/09 00:43:14;;;;;;;;;12.75;11.75;;;;;13.78;66.34;101800.13;5035878;28;45415;-61
2021/10/09 00:45:51;;;;;;;;;11.50;11.50;;;;;13.76;66.54;101799.41;5034966;28;65274;-61
2021/10/09 00:48:16;;;;;;;;;14.50;13.00;;;;;13.76;66.86;101800.25;5019359;28;45395;-60
2021/10/09 00:50:42;;;;;;;;;13.25;11.75;;;;;13.76;66.44;101800.25;5034969;28;65824;-60
2021/10/09 00:53:07;;;;;;;;;11.25;10.25;;;;;13.73;66.72;101797.88;5034870;28;66774;-61
2021/10/09 00:55:33;;;;;;;;;13.25;11.50;;;;;13.70;66.35;101799.91;5001260;28;45316;-61
2021/10/09 00:57:58;;;;;;;;;13.50;11.00;;;;;13.67;66.78;101801.00;5017653;28;46632;-60
2021/10/09 01:00:24;;;;;;;;;13.25;13.25;;;;;13.65;66.83;101795.84;5017632;28;45373;-60
2021/10/09 01:02:49;;;;;;;;;15.50;13.25;;;;;13.61;66.62;101802.31;5035198;28;53078;-61
2021/10/09 01:05:15;;;;;;;;;14.25;12.50;;;;;13.59;66.60;101798.97;5001443;28;62102;-60
2021/10/09 01:07:40;;;;;;;;;13.50;10.25;;;;;13.53;66.89;101788.06;5020264;28;67914;-60
2021/10/09 01:10:06;;;;;;;;;16.50;15.25;;;;;13.52;67.11;101799.59;5038723;28;45387;-61
2021/10/09 01:12:31;;;;;;;;;12.75;11.50;;;;;13.49;66.63;101801.53;5038457;28;45426;-60
2021/10/09 01:14:56;;;;;;;;;15.25;13.50;;;;;13.46;66.59;101785.94;5038908;28;45542;-61
2021/10/09 01:17:22;;;;;;;;;15.00;13.25;;;;;13.44;67.21;101790.50;5038553;28;46342;-61
2021/10/09 01:19:47;;;;;;;;;16.00;15.00;;;;;13.42;67.14;101789.78;5037550;28;71452;-60
2021/10/09 01:22:13;;;;;;;;;16.00;14.75;;;;;13.39;66.83;101790.00;5037863;28;67253;-60
2021/10/09 01:24:38;;;;;;;;;27.00;25.75;;;;;13.36;67.21;101792.88;5038531;28;45530;-61
2021/10/09 01:27:04;;;;;;;;;15.25;14.00;;;;;13.34;66.90;101789.53;5038452;28;45757;-61
2021/10/09 01:29:29;;;;;;;;;16.25;15.00;;;;;13.32;67.04;101791.44;5038473;28;45468;-60
2021/10/09 01:31:54;;;;;;;;;17.75;14.25;;;;;13.30;67.47;101786.31;5038715;28;45415;-60
2021/10/09 01:34:21;;;;;;;;;14.75;13.00;;;;;13.29;66.83;101789.06;5038576;28;45469;-61
2021/10/09 01:36:46;;;;;;;;;16.00;13.50;;;;;13.29;67.11;101783.78;5036865;28;47107;-60
2021/10/09 01:39:15;;;;;;;;;22.50;16.75;;;;;13.29;67.02;101783.78;5037253;28;68657;-61
2021/10/09 01:41:43;;;;;;;;;20.00;16.25;;;;;13.25;67.53;101790.28;5038669;28;45436;-61
2021/10/09 01:44:09;;;;;;;;;15.50;14.00;;;;;13.23;67.46;101784.28;5037191;28;45328;-61
2021/10/09 01:46:34;;;;;;;;;15.00;14.75;;;;;13.23;67.56;101779.84;5003242;28;67717;-61
2021/10/09 01:48:59;;;;;;;;;15.75;14.75;;;;;13.19;67.12;101784.53;5037829;28;47157;-60
2021/10/09 01:51:26;;;;;;;;;15.00;14.25;;;;;13.19;67.32;101781.91;5037916;28;52370;-61
2021/10/09 01:53:52;;;;;;;;;17.50;13.75;;;;;13.17;67.16;101775.03;5038372;28;45155;-60
2021/10/09 01:56:17;;;;;;;;;14.00;14.00;;;;;13.17;67.52;101777.69;5037266;28;69712;-61
2021/10/09 01:58:42;;;;;;;;;16.25;15.00;;;;;13.16;67.30;101773.38;5019827;28;60665;-60
2021/10/09 02:01:08;;;;;;;;;13.50;12.75;;;;;13.15;67.35;101771.69;5037374;28;61025;-60
2021/10/09 02:03:33;;;;;;;;;16.50;12.00;;;;;13.12;67.79;101771.94;5037246;28;68659;-60
2021/10/09 02:05:58;;;;;;;;;19.50;16.00;;;;;13.10;67.36;101774.72;5037215;28;62254;-61
2021/10/09 02:08:24;;;;;;;;;15.00;13.00;;;;;13.09;67.32;101773.03;5037676;28;45376;-60
2021/10/09 02:13:19;;;;;;;;;16.25;15.75;;;;;13.04;67.73;101775.19;5037821;28;45340;-60
2021/10/09 02:15:50;;;;;;;;;14.25;14.25;;;;;13.00;67.57;101779.84;5003975;28;47609;-60
2021/10/09 02:18:31;;;;;;;;;17.25;16.00;;;;;12.96;67.73;101775.81;5036913;28;45317;-61
2021/10/09 02:26:31;;;;;;;;;14.50;13.00;;;;;12.82;67.91;101776.88;5037539;28;45380;-61
2021/10/09 02:28:57;;;;;;;;;15.00;15.00;;;;;12.79;67.73;101765.75;5037022;28;52880;-60
2021/10/09 02:31:22;;;;;;;;;15.00;13.25;;;;;12.73;67.42;101778.44;5036587;28;69294;-61
2021/10/09 02:33:48;;;;;;;;;15.75;15.50;;;;;12.71;67.98;101775.09;5037528;28;45299;-60
2021/10/09 02:36:13;;;;;;;;;18.25;14.50;;;;;12.67;68.02;101776.28;5018570;28;72706;-61
2021/10/09 02:38:38;;;;;;;;;18.50;14.75;;;;;12.65;67.68;101769.47;5003007;28;45321;-61
2021/10/09 02:41:04;;;;;;;;;18.25;16.00;;;;;12.61;68.34;101767.06;5036544;28;64837;-61
2021/10/09 02:43:29;;;;;;;;;15.75;13.50;;;;;12.60;68.04;101769.78;5036571;28;65145;-60
2021/10/09 02:45:54;;;;;;;;;15.50;14.50;;;;;12.57;67.87;101772.66;5037007;28;46169;-60
2021/10/09 02:48:20;;;;;;;;;19.25;17.25;;;;;12.52;68.59;101773.03;5036324;28;64419;-60
2021/10/09 02:50:45;;;;;;;;;17.25;15.00;;;;;12.50;68.29;101774.94;5036613;28;58735;-61
2021/10/09 02:53:11;;;;;;;;;18.75;14.75;;;;;12.46;68.34;101774.31;5018676;28;61826;-61
2021/10/09 02:55:36;;;;;;;;;18.75;16.25;;;;;12.44;68.87;101768.38;5019184;28;45357;-60
2021/10/09 02:58:02;;;;;;;;;18.25;14.75;;;;;12.43;68.42;101771.97;5037075;28;45344;-60
2021/10/09 03:00:27;;;;;;;;;16.00;13.50;;;;;12.43;68.75;101773.75;5037295;28;45320;-60
2021/10/09 03:02:53;;;;;;;;;16.25;15.75;;;;;12.43;68.58;101773.75;5035750;28;45244;-60
2021/10/09 03:05:18;;;;;;;;;16.00;14.75;;;;;12.43;68.38;101773.75;5035562;28;47255;-60
2021/10/09 03:07:43;;;;;;;;;17.50;16.75;;;;;12.43;68.81;101765.84;5036020;28;68407;-60
2021/10/09 03:10:09;;;;;;;;;25.50;19.00;;;;;12.42;68.86;101772.06;5036850;28;45163;-60
2021/10/09 03:12:35;;;;;;;;;21.75;17.00;;;;;12.41;68.27;101767.75;5037025;28;45554;-60
2021/10/09 03:15:00;;;;;;;;;25.75;19.25;;;;;12.39;68.88;101764.38;5036757;28;46604;-60
2021/10/09 03:17:26;;;;;;;;;32.50;22.00;;;;;12.37;69.41;101767.16;5035883;28;70028;-60
2021/10/09 03:19:51;;;;;;;;;23.25;20.75;;;;;12.39;69.02;101767.88;5035896;28;67998;-60
2021/10/09 03:22:17;;;;;;;;;21.75;19.25;;;;;12.40;68.88;101766.06;5034734;28;63033;-60
2021/10/09 03:24:42;;;;;;;;;19.25;17.00;;;;;12.39;69.33;101773.16;5036516;28;46557;-60
2021/10/09 03:27:08;;;;;;;;;22.25;21.00;;;;;12.38;68.77;101760.06;5036290;28;54919;-60
2021/10/09 03:29:33;;;;;;;;;21.25;18.50;;;;;12.35;69.20;101758.53;5035794;28;57731;-60
2021/10/09 03:31:58;;;;;;;;;28.75;21.25;;;;;12.35;68.88;101762.94;5018340;28;53161;-60
2021/10/09 03:34:24;;;;;;;;;19.00;17.75;;;;;12.35;69.00;101770.84;5036370;28;46389;-60
2021/10/09 03:36:49;;;;;;;;;21.50;17.25;;;;;12.35;69.11;101768.22;5036296;28;45440;-60
2021/10/09 03:39:18;;;;;;;;;22.75;18.50;;;;;12.33;69.45;101763.06;5036703;28;45299;-60
2021/10/09 03:41:49;;;;;;;;;19.75;16.75;;;;;12.34;69.33;101770.03;5035139;28;45304;-61
2021/10/09 03:44:15;;;;;;;;;21.25;18.50;;;;;12.35;69.20;101770.84;5036194;28;46380;-60
2021/10/09 03:46:44;;;;;;;;;27.50;22.00;;;;;12.34;68.97;101761.25;5036515;28;45303;-60
2021/10/09 03:49:26;;;;;;;;;23.75;19.75;;;;;12.31;69.03;101770.25;5036521;28;45363;-60
2021/10/09 03:54:43;;;;;;;;;22.75;19.75;;;;;12.30;69.36;101771.22;5035016;28;46099;-60
2021/10/09 03:57:08;;;;;;;;;21.50;18.00;;;;;12.29;69.46;101773.00;5035272;28;69740;-60
2021/10/09 03:59:33;;;;;;;;;20.00;17.25;;;;;12.27;69.33;101774.91;5035454;28;67152;-60
2021/10/09 04:01:59;;;;;;;;;22.50;20.75;;;;;12.30;68.75;101768.56;5017835;28;60520;-60
2021/10/09 04:04:27;;;;;;;;;26.25;23.00;;;;;12.30;69.20;101774.66;5017855;28;63871;-60
2021/10/09 04:06:52;;;;;;;;;21.75;19.50;;;;;12.28;68.91;101773.94;5034961;28;45896;-60
2021/10/09 04:09:18;;;;;;;;;29.75;23.25;;;;;12.26;69.28;101772.41;5035572;28;60172;-60
2021/10/09 04:11:43;;;;;;;;;23.25;19.50;;;;;12.25;68.74;101768.09;5036165;28;46360;-60
2021/10/09 04:14:09;;;;;;;;;25.50;22.50;;;;;12.25;69.13;101770.72;5035179;28;68473;-60
2021/10/09 04:16:34;;;;;;;;;25.75;21.75;;;;;12.22;69.06;101766.50;5035528;28;58099;-60
2021/10/09 04:18:59;;;;;;;;;22.00;20.00;;;;;12.19;69.00;101779.09;5017395;28;64085;-61
2021/10/09 04:21:25;;;;;;;;;22.25;19.50;;;;;12.16;69.28;101780.16;5036211;28;45265;-60
2021/10/09 04:23:50;;;;;;;;;28.25;23.75;;;;;12.14;69.00;101768.91;5035664;28;45491;-60
2021/10/09 04:26:15;;;;;;;;;28.00;24.00;;;;;12.14;68.72;101767.09;5035241;28;62822;-60
2021/10/09 04:28:41;;;;;;;;;24.00;22.00;;;;;12.12;68.77;101763.75;5035253;28;61665;-60
2021/10/09 04:31:06;;;;;;;;;26.75;22.00;;;;;12.12;69.33;101760.28;5035611;28;50386;-60
2021/10/09 04:33:32;;;;;;;;;25.50;24.25;;;;;12.10;68.86;101760.38;5035017;28;67655;-60
2021/10/09 04:35:58;;;;;;;;;28.25;24.50;;;;;12.09;69.17;101760.50;5035725;28;45935;-60
2021/10/09 04:38:24;;;;;;;;;25.00;22.50;;;;;12.08;68.78;101761.47;5050092;28;45714;-60
2021/10/09 04:40:49;;;;;;;;;25.25;21.50;;;;;12.07;69.23;101763.25;5057862;28;45666;-60
2021/10/09 04:43:14;;;;;;;;;29.00;23.00;;;;;12.06;69.15;101758.94;5058973;28;56640;-60
2021/10/09 04:45:40;;;;;;;;;24.75;23.00;;;;;12.05;68.82;101756.44;5058759;28;54945;-61
2021/10/09 04:48:05;;;;;;;;;21.75;21.75;;;;;12.01;69.37;101767.19;5058774;28;59238;-60
2021/10/09 04:50:31;;;;;;;;;28.25;23.75;;;;;12.00;69.41;101764.66;5059483;28;45322;-60
2021/10/09 04:52:56;;;;;;;;;25.75;22.00;;;;;12.00;69.52;101760.25;5059053;28;45438;-60
2021/10/09 04:55:22;;;;;;;;;28.00;25.25;;;;;11.97;69.47;101767.47;5059141;28;45182;-60
2021/10/09 04:57:47;;;;;;;;;27.75;24.75;;;;;11.95;69.07;101769.38;5059301;28;45229;-60
2021/10/09 05:00:13;;;;;;;;;30.00;27.75;;;;;11.94;69.32;101765.06;5059207;28;45312;-60
2021/10/09 05:02:38;;;;;;;;;27.25;24.50;;;;;11.88;69.48;101756.72;5058932;28;47215;-60
2021/10/09 05:05:04;;;;;;;;;27.50;26.25;;;;;11.86;69.35;101752.50;5058121;28;67899;-60
2021/10/09 05:07:30;;;;;;;;;32.75;26.50;;;;;11.86;68.95;101760.41;5058949;28;45378;-61
2021/10/09 05:09:55;;;;;;;;;27.50;25.50;;;;;11.82;69.37;101759.78;5059061;28;45538;-60
2021/10/09 05:12:20;;;;;;;;;36.50;29.25;;;;;11.79;69.09;101752.13;5040295;28;55368;-60
2021/10/09 05:14:46;;;;;;;;;39.25;31.50;;;;;11.77;69.64;101758.44;5040850;28;45440;-61
2021/10/09 05:17:12;;;;;;;;;31.50;28.75;;;;;11.75;69.24;101758.56;5058897;28;45449;-61
2021/10/09 05:19:37;;;;;;;;;27.50;26.50;;;;;11.72;69.46;101758.78;5040656;28;45516;-61
2021/10/09 05:22:02;;;;;;;;;30.25;27.50;;;;;11.72;69.66;101761.44;5058418;28;46292;-61
2021/10/09 05:24:28;;;;;;;;;34.50;32.25;;;;;11.70;69.24;101751.00;5058317;28;45346;-61
2021/10/09 05:26:53;;;;;;;;;34.75;29.00;;;;;11.69;69.54;101751.94;5058126;28;55533;-60
2021/10/09 05:29:20;;;;;;;;;32.50;30.50;;;;;11.68;69.29;101749.44;5058372;28;45379;-61
2021/10/09 05:31:48;;;;;;;;;35.25;29.25;;;;;11.68;69.80;101760.78;5058278;28;45401;-60
2021/10/09 05:34:13;;;;;;;;;35.50;29.25;;;;;11.67;69.64;101759.13;5058366;28;45233;-61
2021/10/09 05:36:39;;;;;;;;;31.75;28.00;;;;;11.63;69.81;101755.06;5039754;28;59852;-61
2021/10/09 05:39:04;;;;;;;;;30.00;27.25;;;;;11.62;69.60;101760.41;5040078;28;51551;-60
2021/10/09 05:41:29;;;;;;;;;31.00;26.25;;;;;11.61;69.18;101759.59;5040241;28;46569;-60
2021/10/09 05:43:55;;;;;;;;;29.50;26.50;;;;;11.60;69.20;101763.19;5057637;28;63222;-60
2021/10/09 05:46:22;;;;;;;;;33.00;30.00;;;;;11.60;69.58;101760.53;5057949;28;58842;-60
2021/10/09 05:48:48;;;;;;;;;35.50;28.25;;;;;11.59;69.14;101761.50;5057996;28;45522;-61
2021/10/09 05:51:25;;;;;;;;;31.75;28.25;;;;;11.56;69.02;101766.97;5057195;28;46011;-60
2021/10/09 06:42:18;;;;;;;;;36.25;29.50;;;;;11.22;69.35;101806.22;5057417;28;45269;-60
2021/10/09 07:00:52;;;;;;;;;36.25;27.75;;;;;11.25;70.03;101821.81;5057391;28;45359;-61
2021/10/09 07:03:18;;;;;;;;;39.00;32.00;;;;;11.27;69.96;101830.44;5056159;28;57586;-61
2021/10/09 07:05:44;;;;;;;;;36.50;29.25;;;;;11.31;69.98;101831.06;5038714;28;45505;-61
2021/10/09 07:08:09;;;;;;;;;36.00;30.75;;;;;11.32;70.02;101832.75;5056970;28;45474;-61
2021/10/09 07:10:38;;;;;;;;;33.75;30.75;;;;;11.32;70.05;101832.75;5057058;28;45743;-61
2021/10/09 07:13:03;;;;;;;;;38.25;31.25;;;;;11.33;70.19;101835.25;5057047;28;45388;-61
2021/10/09 07:15:28;;;;;;;;;33.75;30.00;;;;;11.37;70.07;101841.16;5038427;28;50420;-61
2021/10/09 07:17:54;;;;;;;;;32.50;29.75;;;;;11.41;69.96;101840.81;5056053;28;62643;-61
2021/10/09 07:20:19;;;;;;;;;34.50;28.50;;;;;11.46;69.93;101845.75;5056330;28;61531;-60
2021/10/09 07:22:47;;;;;;;;;33.00;30.00;;;;;11.52;69.83;101844.50;5056602;28;45546;-61
2021/10/09 07:25:13;;;;;;;;;34.50;31.50;;;;;11.54;69.82;101842.59;5039184;28;45488;-61
2021/10/09 07:27:38;;;;;;;;;34.75;31.50;;;;;11.60;69.70;101844.78;5038763;28;45339;-61
2021/10/09 07:30:04;;;;;;;;;30.75;29.75;;;;;11.65;70.28;101850.56;5055864;28;65349;-61
2021/10/09 07:32:29;;;;;;;;;39.50;33.25;;;;;11.72;69.68;101846.50;5038853;28;45560;-61
2021/10/09 07:34:55;;;;;;;;;34.50;29.75;;;;;11.77;69.64;101848.81;5056665;28;46051;-61
2021/10/09 07:37:20;;;;;;;;;36.00;30.00;;;;;11.84;69.41;101849.19;5055530;28;68637;-60
2021/10/09 07:39:45;;;;;;;;;40.00;31.50;;;;;11.86;69.29;101848.16;5055791;28;58763;-61
2021/10/09 07:42:11;;;;;;;;;34.00;29.50;;;;;11.93;69.62;101853.81;5055524;28;63683;-60
2021/10/09 07:44:36;;;;;;;;;38.00;32.50;;;;;11.99;69.47;101863.03;5056239;28;45336;-61
2021/10/09 07:47:02;;;;;;;;;35.25;30.00;;;;;12.05;69.47;101861.78;5038285;28;45399;-60
2021/10/09 07:49:27;;;;;;;;;34.50;31.00;;;;;12.10;69.05;101854.41;5055636;28;62975;-61
2021/10/09 07:51:52;;;;;;;;;39.75;32.25;;;;;12.17;69.10;101867.00;5056285;28;45603;-61
2021/10/09 07:54:18;;;;;;;;;36.25;31.50;;;;;12.27;69.25;101864.50;5055321;28;53198;-61
2021/10/09 07:56:43;;;;;;;;;33.25;30.50;;;;;12.40;68.96;101866.22;5055548;28;45234;-61
2021/10/09 07:59:09;;;;;;;;;34.25;32.00;;;;;12.55;68.60;101870.34;5054814;28;59128;-61
2021/10/09 08:01:34;;;;;;;;;38.25;32.75;;;;;12.73;68.75;101872.53;5054712;28;65780;-60
2021/10/09 08:04:00;;;;;;;;;40.00;32.00;;;;;12.95;68.36;101868.25;5036736;28;64116;-60
2021/10/09 08:06:25;;;;;;;;;40.00;33.00;;;;;13.15;67.36;101870.19;5055434;28;45399;-61
2021/10/09 08:08:51;;;;;;;;;32.00;29.50;;;;;13.36;67.22;101869.44;5054276;28;60914;-61
2021/10/09 08:11:16;;;;;;;;;41.75;33.00;;;;;13.58;66.62;101873.06;5053479;28;45637;-61
2021/10/09 08:13:43;;;;;;;;;39.50;31.50;;;;;13.79;66.23;101876.59;5036910;28;45610;-61
2021/10/09 08:16:08;;;;;;;;;39.00;34.50;;;;;14.00;65.54;101878.47;5039313;28;45889;-61
2021/10/09 08:18:33;;;;;;;;;36.75;30.00;;;;;14.20;65.69;101873.34;5058256;28;45858;-61
2021/10/09 08:21:02;;;;;;;;;38.00;32.00;;;;;14.38;64.77;101871.78;5055595;28;64161;-61
2021/10/09 08:23:31;;;;;;;;;41.00;32.00;;;;;14.63;64.27;101879.47;5056563;28;46178;-61
2021/10/09 08:26:20;;;;;;;;;35.50;30.50;;;;;14.85;63.19;101873.22;5056745;28;45558;-61
2021/10/09 08:37:06;;;;;;;;;33.50;30.00;;;;;15.73;61.67;101873.50;5057180;28;45684;-61
2021/10/09 08:39:31;;;;;;;;;33.75;27.50;;;;;15.98;60.85;101883.75;5040469;28;45531;-61
2021/10/09 08:41:57;;;;;;;;;31.50;27.50;;;;;16.19;60.28;101880.97;5057111;28;45474;-60
2021/10/09 08:44:23;;;;;;;;;39.00;31.25;;;;;16.40;59.87;101879.97;5057096;28;69352;-61
2021/10/09 08:46:48;;;;;;;;;36.00;31.25;;;;;16.60;59.14;101876.31;5058290;28;45455;-61
2021/10/09 08:49:13;;;;;;;;;36.75;30.75;;;;;16.80;58.45;101875.44;5040219;28;45807;-62
2021/10/09 08:51:39;;;;;;;;;37.75;33.25;;;;;16.97;58.05;101874.69;5057786;28;45454;-61
2021/10/09 08:54:09;;;;;;;;;34.75;30.00;;;;;17.16;57.41;101878.25;5038432;28;57365;-60
2021/10/09 08:56:36;;;;;;;;;36.25;31.50;;;;;17.34;57.28;101873.84;5058121;28;45470;-61
2021/10/09 08:59:18;;;;;;;;;31.00;25.50;;;;;17.55;56.64;101878.03;5058194;28;45443;-61
2021/10/09 09:01:52;;;;;;;;;29.50;28.25;;;;;17.73;55.74;101878.09;5054614;28;45461;-61
2021/10/09 09:32:25;;;;;;;;;30.50;26.25;;;;;19.34;51.37;101862.91;5057290;28;45412;-62
2021/10/09 09:40:08;;;;;;;;;32.50;27.25;;;;;19.59;50.29;101858.50;5057137;28;45273;-61
2021/10/09 09:42:41;;;;;;;;;28.50;23.50;;;;;19.67;49.58;101853.16;5039121;28;45529;-61
2021/10/09 09:45:10;;;;;;;;;32.50;28.00;;;;;19.77;49.36;101849.50;5040203;28;47277;-62
2021/10/09 09:47:40;;;;;;;;;34.50;30.75;;;;;19.83;49.43;101851.50;5056715;28;45345;-61
2021/10/09 09:50:10;;;;;;;;;28.25;24.50;;;;;19.89;49.44;101861.53;5056959;28;45547;-62
2021/10/09 09:52:37;;;;;;;;;34.25;28.00;;;;;19.98;49.44;101852.56;5056532;28;45324;-61
2021/10/09 09:55:07;;;;;;;;;27.00;22.75;;;;;20.07;49.32;101850.72;5038920;28;45624;-61
2021/10/09 09:57:33;;;;;;;;;29.00;23.50;;;;;20.19;48.42;101850.38;5056694;28;46438;-60
2021/10/09 09:59:59;;;;;;;;;29.25;26.25;;;;;20.25;48.22;101855.88;5038478;28;45360;-61
2021/10/09 10:02:27;;;;;;;;;29.75;25.25;;;;;20.34;48.14;101853.19;5022143;28;45433;-62
2021/10/09 10:04:52;;;;;;;;;31.50;25.75;;;;;20.48;48.04;101847.19;5038528;28;45436;-59
2021/10/09 10:07:17;;;;;;;;;26.25;26.00;;;;;20.62;47.63;101848.31;5038237;28;46086;-62
2021/10/09 10:09:43;;;;;;;;;32.50;26.00;;;;;20.73;46.73;101841.75;5021143;28;71089;-61
2021/10/09 10:12:08;;;;;;;;;25.25;22.75;;;;;20.86;46.33;101836.75;5037610;28;65034;-61
2021/10/09 10:14:34;;;;;;;;;22.75;21.25;;;;;21.03;46.64;101850.06;5021416;28;62863;-61
2021/10/09 10:16:59;;;;;;;;;26.00;22.75;;;;;21.20;45.08;101848.94;5021986;28;46793;-62
2021/10/09 10:19:49;;;;;;;;;21.00;19.00;;;;;21.32;45.69;101844.06;5056467;28;45451;-62
2021/10/09 10:22:15;;;;;;;;;25.00;22.25;;;;;21.49;45.54;101850.13;5056638;28;45284;-62
2021/10/09 10:24:42;;;;;;;;;28.50;24.75;;;;;21.66;44.22;101841.19;5056560;28;45412;-62
2021/10/09 10:27:40;;;;;;;;;23.00;22.50;;;;;21.75;43.57;101842.81;5056221;28;46145;-62
2021/10/09 10:30:14;;;;;;;;;23.50;21.50;;;;;21.87;43.97;101837.88;5054494;28;45518;-62
2021/10/09 10:32:56;;;;;;;;;23.75;20.25;;;;;21.94;42.97;101839.66;5056218;28;45438;-62
2021/10/09 10:35:34;;;;;;;;;21.75;19.00;;;;;22.01;43.11;101837.09;5056394;28;45418;-62
2021/10/09 10:38:06;;;;;;;;;22.25;21.25;;;;;22.03;42.14;101829.72;5055053;28;46569;-62
2021/10/09 10:40:44;;;;;;;;;26.25;24.50;;;;;21.98;42.96;101837.44;5039021;28;45810;-62
2021/10/09 10:43:55;;;;;;;;;26.25;20.75;;;;;21.96;43.21;101828.75;5056303;28;45281;-62
2021/10/09 10:49:12;;;;;;;;;28.00;22.25;;;;;22.18;42.28;101827.06;5056131;28;45306;-61
2021/10/09 10:54:28;;;;;;;;;27.50;22.50;;;;;22.40;41.24;101824.53;5056308;28;45571;-62
2021/10/09 10:57:00;;;;;;;;;19.75;18.50;;;;;22.58;40.78;101821.50;5054661;28;45392;-62
2021/10/09 10:59:44;;;;;;;;;23.25;17.25;;;;;22.65;39.98;101819.75;5055642;28;46551;-61
2021/10/09 11:02:22;;;;;;;;;20.25;19.75;;;;;22.71;40.07;101828.88;5055953;28;45515;-61
2021/10/09 11:04:52;;;;;;;;;22.25;20.00;;;;;22.78;39.56;101818.28;5055938;28;45332;-62
2021/10/09 11:07:19;;;;;;;;;20.75;18.25;;;;;22.79;39.57;101818.06;5055736;28;45421;-62
2021/10/09 11:09:44;;;;;;;;;21.00;19.75;;;;;22.90;40.05;101822.13;5037949;28;46561;-62
2021/10/09 11:12:18;;;;;;;;;21.25;19.00;;;;;23.01;39.52;101820.81;5055570;27;45418;-62
2021/10/09 11:14:44;;;;;;;;;20.25;19.25;;;;;23.14;39.65;101817.47;5055628;28;45434;-62
2021/10/09 11:17:09;;;;;;;;;22.25;17.50;;;;;23.34;39.54;101823.06;5054642;28;48579;-61
2021/10/09 11:19:49;;;;;;;;;19.00;18.00;;;;;23.49;38.69;101819.53;5020243;28;45522;-62
2021/10/09 11:22:16;;;;;;;;;20.75;18.00;;;;;23.52;38.37;101822.63;5053998;28;46087;-62
2021/10/09 11:24:44;;;;;;;;;20.25;16.50;;;;;23.60;38.83;101819.00;5054960;28;45458;-62
2021/10/09 11:27:10;;;;;;;;;21.25;18.25;;;;;23.73;38.53;101817.47;5055236;28;45411;-61
2021/10/09 11:29:35;;;;;;;;;18.25;18.25;;;;;23.78;37.86;101821.25;5054592;28;46899;-61
2021/10/09 11:32:03;;;;;;;;;22.00;20.75;;;;;23.84;37.97;101822.31;5055029;28;45596;-62
2021/10/09 11:34:28;;;;;;;;;22.25;18.75;;;;;23.90;37.17;101829.59;5055521;28;45371;-62
2021/10/09 11:36:54;;;;;;;;;18.75;18.50;;;;;23.86;37.08;101829.13;5020063;28;61581;-61
2021/10/09 11:39:23;;;;;;;;;17.25;14.25;;;;;23.84;37.19;101823.16;5053300;28;45551;-62
2021/10/09 11:42:06;;;;;;;;;15.75;14.75;;;;;23.80;37.25;101812.97;5054936;28;45923;-62
2021/10/09 11:44:37;;;;;;;;;19.25;17.50;;;;;23.69;37.12;101811.66;5054733;28;45483;-62
2021/10/09 11:55:17;;;;;;;;;17.75;17.00;;;;;22.70;38.65;101808.47;5040671;28;45295;-62
2021/10/09 11:57:42;;;;;;;;;14.25;14.00;;;;;22.41;37.97;101806.59;5055173;28;45500;-62
2021/10/09 12:00:28;;;;;;;;;15.00;15.00;;;;;22.07;38.16;101814.97;5036880;28;46327;-59
2021/10/09 12:02:54;;;;;;;;;18.75;15.00;;;;;21.86;38.91;101807.63;5043733;28;45341;-59
2021/10/09 12:05:19;;;;;;;;;15.00;14.50;;;;;21.68;39.08;101807.09;5054920;28;45458;-60
2021/10/09 12:08:14;;;;;;;;;17.25;15.00;;;;;21.50;39.31;101814.38;5054628;28;50444;-59
2021/10/09 12:10:39;;;;;;;;;18.50;15.00;;;;;21.31;39.45;101804.97;5052679;28;45543;-61
2021/10/09 12:13:05;;;;;;;;;19.25;16.75;;;;;21.14;39.65;101806.91;5055085;28;45220;-61
2021/10/09 12:15:30;;;;;;;;;14.00;13.25;;;;;20.98;39.90;101799.78;5055092;28;45383;-61
2021/10/09 12:17:59;;;;;;;;;18.25;16.25;;;;;20.82;39.99;101803.38;5053585;28;70540;-61
2021/10/09 12:20:26;;;;;;;;;21.00;16.50;;;;;20.66;40.50;101800.75;5054475;28;45491;-61
2021/10/09 12:22:55;;;;;;;;;18.50;16.75;;;;;20.55;40.30;101805.44;5036039;28;46584;-62
2021/10/09 12:25:26;;;;;;;;;16.00;15.00;;;;;20.44;40.18;101803.94;5054984;28;45478;-61
2021/10/09 12:28:02;;;;;;;;;14.50;13.25;;;;;20.36;40.64;101803.16;5054850;28;45415;-61
2021/10/09 12:30:35;;;;;;;;;18.50;17.00;;;;;20.26;40.93;101800.69;5036560;28;45484;-62
2021/10/09 12:33:00;;;;;;;;;16.75;16.75;;;;;20.16;41.55;101788.34;5054312;28;46013;-61
2021/10/09 12:35:27;;;;;;;;;19.00;17.25;;;;;20.08;41.23;101787.53;5054264;28;58885;-61
2021/10/09 12:37:54;;;;;;;;;22.75;19.75;;;;;20.02;41.86;101794.34;5036544;28;45317;-61
2021/10/09 12:40:19;;;;;;;;;21.00;17.25;;;;;19.98;42.51;101791.19;5054468;28;46673;-61
2021/10/09 12:42:49;;;;;;;;;21.50;17.25;;;;;19.95;42.14;101780.88;5054449;28;45313;-62
2021/10/09 12:45:15;;;;;;;;;17.75;17.75;;;;;19.94;42.97;101781.00;5036628;28;45420;-61
2021/10/09 12:47:44;;;;;;;;;18.75;16.25;;;;;19.89;42.66;101780.69;5054026;28;64898;-62
2021/10/09 12:50:10;;;;;;;;;20.00;18.75;;;;;19.83;43.02;101780.34;5054567;28;46189;-61
2021/10/09 12:52:35;;;;;;;;;18.50;17.25;;;;;19.79;43.40;101775.50;5053987;28;45418;-61
2021/10/09 12:55:02;;;;;;;;;16.50;16.50;;;;;19.75;43.43;101779.50;5053733;28;68400;-61
2021/10/09 12:57:31;;;;;;;;;17.50;15.50;;;;;19.71;43.24;101769.16;5054566;28;45534;-61
2021/10/09 12:59:56;;;;;;;;;17.00;15.50;;;;;19.70;42.97;101780.81;5054012;28;46325;-62
2021/10/09 13:02:22;;;;;;;;;22.50;20.00;;;;;19.69;43.25;101773.81;5038843;28;45295;-61
2021/10/09 13:04:47;;;;;;;;;20.00;17.50;;;;;19.65;43.24;101777.00;5040533;28;45393;-61
2021/10/09 13:07:12;;;;;;;;;15.75;15.50;;;;;19.64;43.48;101770.81;5058040;28;62506;-60
2021/10/09 13:09:38;;;;;;;;;22.75;20.75;;;;;19.72;44.19;101767.34;5039675;28;61364;-60
2021/10/09 13:12:05;;;;;;;;;20.50;19.00;;;;;19.84;43.36;101771.34;5058617;28;45363;-60
2021/10/09 13:14:30;;;;;;;;;17.00;16.25;;;;;19.96;43.28;101765.69;5058439;28;45297;-61
2021/10/09 13:16:56;;;;;;;;;17.50;16.00;;;;;20.12;43.40;101767.50;5058761;28;45178;-60
2021/10/09 13:19:21;;;;;;;;;21.50;18.00;;;;;20.36;43.28;101761.28;5039699;28;70237;-60
2021/10/09 13:21:46;;;;;;;;;22.50;19.75;;;;;20.63;43.46;101761.03;5058492;28;45254;-60